createdAt,value
2023-02-18T00:02:16.591Z,101212.38
2023-02-18T00:05:19.807Z,101205.28
2023-02-18T00:08:23.040Z,101202.63
2023-02-18T00:11:26.051Z,101214.22
2023-02-18T00:14:30.411Z,101208.97
2023-02-18T00:17:33.591Z,101194.78
2023-02-18T00:20:36.915Z,101205.44
2023-02-18T00:23:42.485Z,101203.69
2023-02-18T00:26:47.473Z,101197.47
2023-02-18T00:29:51.710Z,101199.31
2023-02-18T00:32:54.544Z,101202.88
2023-02-18T00:36:03.738Z,101198.50
2023-02-18T00:39:09.288Z,101195.91
2023-02-18T00:42:12.260Z,101199.44
2023-02-18T00:45:16.686Z,101213.69
2023-02-18T00:48:20.309Z,101206.63
2023-02-18T00:51:25.280Z,101224.41
2023-02-18T00:54:28.390Z,101234.22
2023-02-18T00:57:31.247Z,101230.75
2023-02-18T01:00:35.869Z,101236.88
2023-02-18T01:03:40.631Z,101232.56
2023-02-18T01:06:44.175Z,101241.41
2023-02-18T01:09:46.986Z,101229.88
2023-02-18T01:12:50.183Z,101229.88
2023-02-18T01:15:54.826Z,101238.75
2023-02-18T01:18:57.778Z,101244.13
2023-02-18T01:22:02.303Z,101245.06
2023-02-18T01:25:05.393Z,101245.91
2023-02-18T01:28:09.884Z,101252.19
2023-02-18T01:31:14.965Z,101230.00
2023-02-18T01:34:18.098Z,101244.28
2023-02-18T01:37:20.985Z,101234.53
2023-02-18T01:40:25.760Z,101223.94
2023-02-18T01:43:29.339Z,101239.94
2023-02-18T01:46:33.520Z,101244.31
2023-02-18T01:49:40.171Z,101242.53
2023-02-18T01:52:43.039Z,101257.63
2023-02-18T01:55:47.396Z,101260.31
2023-02-18T01:58:51.302Z,101263.84
2023-02-18T02:01:56.951Z,101257.63
2023-02-18T02:05:00.032Z,101250.59
2023-02-18T02:08:04.298Z,101259.50
2023-02-18T02:11:20.144Z,101259.50
2023-02-18T02:14:36.094Z,101259.50
2023-02-18T02:17:51.315Z,101254.16
2023-02-18T02:21:20.993Z,101260.44
2023-02-18T02:25:03.724Z,101252.47
2023-02-18T02:28:43.470Z,101257.78
2023-02-18T02:32:16.095Z,101245.38
2023-02-18T02:35:24.922Z,101247.13
2023-02-18T02:38:35.063Z,101248.91
2023-02-18T02:41:47.716Z,101254.25
2023-02-18T02:44:57.136Z,101251.59
2023-02-18T02:48:10.304Z,101256.03
2023-02-18T02:51:19.850Z,101262.31
2023-02-18T02:54:25.386Z,101259.66
2023-02-18T02:57:48.309Z,101265.88
2023-02-18T03:01:14.769Z,101267.69
2023-02-18T03:04:41.615Z,101267.63
2023-02-18T03:08:05.584Z,101260.56
2023-02-18T03:11:12.221Z,101264.19
2023-02-18T03:14:22.420Z,101269.50
2023-02-18T03:17:28.873Z,101273.00
2023-02-18T03:20:37.655Z,101280.09
2023-02-18T03:23:48.895Z,101280.97
2023-02-18T03:26:56.016Z,101283.47
2023-02-18T03:30:03.903Z,101277.09
2023-02-18T03:33:10.580Z,101285.88
2023-02-18T03:36:14.399Z,101276.06
2023-02-18T03:39:21.183Z,101273.16
2023-02-18T03:42:27.834Z,101274.75
2023-02-18T03:45:30.916Z,101267.53
2023-02-18T03:48:34.408Z,101267.25
2023-02-18T03:51:37.255Z,101285.78
2023-02-18T03:54:41.439Z,101266.13
2023-02-18T03:57:44.774Z,101279.44
2023-02-18T04:00:47.548Z,101283.84
2023-02-18T04:03:50.399Z,101279.41
2023-02-18T04:06:53.263Z,101282.06
2023-02-18T04:09:57.483Z,101277.66
2023-02-18T04:13:00.698Z,101287.44
2023-02-18T04:16:03.522Z,101279.50
2023-02-18T04:19:06.898Z,101298.19
2023-02-18T04:22:09.746Z,101284.91
2023-02-18T04:25:14.030Z,101300.91
2023-02-18T04:28:17.947Z,101301.91
2023-02-18T04:31:21.346Z,101314.34
2023-02-18T04:34:24.351Z,101323.31
2023-02-18T04:37:27.279Z,101321.63
2023-02-18T04:40:31.475Z,101324.28
2023-02-18T04:43:34.336Z,101322.53
2023-02-18T04:46:37.187Z,101314.63
2023-02-18T04:49:40.107Z,101324.41
2023-02-18T04:52:42.951Z,101331.56
2023-02-18T04:55:50.875Z,101322.69
2023-02-18T04:58:53.815Z,101315.59
2023-02-18T05:01:56.695Z,101329.88
2023-02-18T05:04:59.836Z,101320.13
2023-02-18T05:08:02.936Z,101325.47
2023-02-18T05:11:08.669Z,101317.47
2023-02-18T05:14:12.299Z,101320.13
2023-02-18T05:17:15.123Z,101315.75
2023-02-18T05:20:18.296Z,101316.59
2023-02-18T05:23:21.473Z,101314.81
2023-02-18T05:26:25.829Z,101322.81
2023-02-18T05:29:28.756Z,101339.66
2023-02-18T05:32:31.630Z,101333.47
2023-02-18T05:35:34.652Z,101328.13
2023-02-18T05:38:37.583Z,101335.22
2023-02-18T05:41:41.752Z,101328.06
2023-02-18T05:44:44.638Z,101335.22
2023-02-18T05:47:47.587Z,101330.72
2023-02-18T05:50:53.923Z,101323.59
2023-02-18T05:53:56.814Z,101331.59
2023-02-18T05:57:01.176Z,101329.88
2023-02-18T06:00:05.231Z,101328.06
2023-02-18T06:03:08.038Z,101315.59
2023-02-18T06:06:11.372Z,101314.72
2023-02-18T06:09:14.702Z,101313.91
2023-02-18T06:12:18.932Z,101317.41
2023-02-18T06:15:21.906Z,101319.22
2023-02-18T06:18:25.280Z,101313.03
2023-02-18T06:21:28.399Z,101310.44
2023-02-18T06:24:31.331Z,101313.09
2023-02-18T06:27:35.524Z,101308.69
2023-02-18T06:30:38.874Z,101313.13
2023-02-18T06:33:41.834Z,101312.28
2023-02-18T06:36:44.668Z,101301.63
2023-02-18T06:39:47.525Z,101288.31
2023-02-18T06:42:51.771Z,101292.69
2023-02-18T06:45:54.694Z,101291.78
2023-02-18T06:48:57.571Z,101290.81
2023-02-18T06:52:00.533Z,101301.50
2023-02-18T06:55:03.419Z,101289.13
2023-02-18T06:58:07.701Z,101289.13
2023-02-18T07:01:10.624Z,101292.69
2023-02-18T07:04:13.549Z,101290.97
2023-02-18T07:07:16.498Z,101300.75
2023-02-18T07:10:19.852Z,101296.31
2023-02-18T07:13:24.140Z,101292.78
2023-02-18T07:16:27.061Z,101299.00
2023-02-18T07:19:30.014Z,101305.22
2023-02-18T07:22:33.169Z,101289.22
2023-02-18T07:25:36.041Z,101299.88
2023-02-18T07:28:41.264Z,101296.31
2023-02-18T07:31:44.272Z,101286.50
2023-02-18T07:34:47.261Z,101303.34
2023-02-18T07:37:51.474Z,101290.97
2023-02-18T07:40:55.473Z,101290.97
2023-02-18T07:44:00.217Z,101269.66
2023-02-18T07:47:03.251Z,101275.00
2023-02-18T07:50:07.607Z,101271.38
2023-02-18T07:53:12.479Z,101280.97
2023-02-18T07:56:15.631Z,101276.91
2023-02-18T07:59:20.028Z,101284.09
2023-02-18T08:02:24.901Z,101282.22
2023-02-18T08:05:27.908Z,101279.34
2023-02-18T08:08:32.289Z,101267.50
2023-02-18T08:11:36.088Z,101259.38
2023-02-18T08:14:40.812Z,101253.91
2023-02-18T08:17:43.658Z,101255.53
2023-02-18T08:20:47.812Z,101245.53
2023-02-18T08:23:50.818Z,101242.66
2023-02-18T08:27:00.375Z,101241.41
2023-02-18T08:30:06.638Z,101226.88
2023-02-18T08:33:09.653Z,101230.19
2023-02-18T08:36:12.537Z,101236.19
2023-02-18T08:39:15.419Z,101225.44
2023-02-18T08:42:18.366Z,101224.38
2023-02-18T08:45:23.723Z,101223.41
2023-02-18T08:48:27.376Z,101210.97
2023-02-18T08:51:31.445Z,101213.63
2023-02-18T08:54:34.400Z,101215.41
2023-02-18T08:57:37.326Z,101205.69
2023-02-18T09:00:43.059Z,101201.28
2023-02-18T09:03:46.328Z,101205.81
2023-02-18T09:06:50.078Z,101211.19
2023-02-18T09:09:53.484Z,101199.75
2023-02-18T09:12:56.367Z,101197.13
2023-02-18T09:16:03.458Z,101194.47
2023-02-18T09:19:06.524Z,101189.28
2023-02-18T09:22:09.550Z,101187.53
2023-02-18T09:25:12.460Z,101175.09
2023-02-18T09:28:15.382Z,101180.50
2023-02-18T09:31:21.605Z,101183.16
2023-02-18T09:34:24.524Z,101183.16
2023-02-18T09:37:27.409Z,101168.09
2023-02-18T09:40:33.355Z,101167.16
2023-02-18T09:43:41.653Z,101164.50
2023-02-18T09:46:51.453Z,101151.16
2023-02-18T09:49:57.799Z,101152.88
2023-02-18T09:53:01.738Z,101147.56
2023-02-18T09:56:04.928Z,101143.09
2023-02-18T09:59:14.403Z,101156.44
2023-02-18T10:02:20.937Z,101139.50
2023-02-18T10:05:25.559Z,101116.34
2023-02-18T10:08:30.613Z,101112.78
2023-02-18T10:11:38.958Z,101125.16
2023-02-18T10:14:42.281Z,101118.91
2023-02-18T10:17:47.977Z,101106.34
2023-02-18T10:20:52.882Z,101095.69
2023-02-18T10:24:00.770Z,101085.91
2023-02-18T10:27:06.645Z,101079.66
2023-02-18T10:30:23.820Z,101082.28
2023-02-18T10:33:36.662Z,101086.66
2023-02-18T10:36:46.257Z,101061.72
2023-02-18T10:40:04.562Z,101051.91
2023-02-18T10:43:13.899Z,101033.19
2023-02-18T10:46:25.615Z,101025.97
2023-02-18T10:49:48.339Z,101004.69
2023-02-18T10:52:53.716Z,100989.56
2023-02-18T10:55:56.859Z,100990.44
2023-02-18T10:59:06.759Z,101001.03
2023-02-18T11:02:19.005Z,100990.31
2023-02-18T11:05:26.805Z,100993.81
2023-02-18T11:08:40.280Z,100982.22
2023-02-18T11:11:45.706Z,100985.75
2023-02-18T11:15:04.596Z,100982.13
2023-02-18T11:18:23.618Z,100983.00
2023-02-18T11:21:37.742Z,100979.38
2023-02-18T11:24:40.962Z,100974.94
2023-02-18T11:27:47.393Z,100956.34
2023-02-18T11:30:55.196Z,100961.69
2023-02-18T11:34:00.931Z,100943.94
2023-02-18T11:37:13.180Z,100947.47
2023-02-18T11:40:24.149Z,100927.94
2023-02-18T11:43:31.800Z,100914.59
2023-02-18T11:46:35.147Z,100901.28
2023-02-18T11:49:38.047Z,100897.69
2023-02-18T11:52:43.688Z,100893.22
2023-02-18T11:55:56.343Z,100876.34
2023-02-18T11:59:00.027Z,100870.06
2023-02-18T12:02:23.443Z,100861.22
2023-02-18T12:05:28.758Z,100863.94
2023-02-18T12:08:39.999Z,100847.94
2023-02-18T12:11:47.403Z,100843.50
2023-02-18T12:14:52.996Z,100837.28
2023-02-18T12:18:22.610Z,100832.91
2023-02-18T12:21:45.431Z,100803.56
2023-02-18T12:25:03.239Z,100827.50
2023-02-18T12:28:23.548Z,100805.28
2023-02-18T12:31:45.943Z,100823.03
2023-02-18T12:35:04.424Z,100763.50
2023-02-18T12:38:38.473Z,100777.78
2023-02-18T12:42:14.782Z,100769.69
2023-02-18T12:45:38.108Z,100767.97
2023-02-18T12:48:54.568Z,100732.38
2023-02-18T12:52:13.427Z,100751.03
2023-02-18T12:55:32.036Z,100739.50
2023-02-18T12:58:48.122Z,100720.84
2023-02-18T13:02:03.322Z,100697.81
2023-02-18T13:05:13.467Z,100717.31
2023-02-18T13:08:32.403Z,100699.50
2023-02-18T13:11:45.215Z,100692.47
2023-02-18T13:14:57.205Z,100697.81
2023-02-18T13:18:04.468Z,100687.97
2023-02-18T13:21:09.688Z,100678.25
2023-02-18T13:24:15.739Z,100685.41
2023-02-18T13:27:27.309Z,100645.41
2023-02-18T13:30:39.682Z,100680.94
2023-02-18T13:33:48.292Z,100688.16
2023-02-18T13:37:03.045Z,100686.34
2023-02-18T13:40:15.112Z,100678.34
2023-02-18T13:43:21.068Z,100666.81
2023-02-18T13:46:26.093Z,100684.63
2023-02-18T13:49:35.429Z,100666.81
2023-02-18T13:52:38.351Z,100657.97
2023-02-18T13:55:47.014Z,100641.03
2023-02-18T13:58:52.570Z,100640.16
2023-02-18T14:01:56.886Z,100645.50
2023-02-18T14:05:20.821Z,100635.69
2023-02-18T14:08:33.013Z,100626.84
2023-02-18T14:11:41.954Z,100652.53
2023-02-18T14:14:45.251Z,100638.28
2023-02-18T14:17:51.620Z,100648.94
2023-02-18T14:21:06.446Z,100640.84
2023-02-18T14:24:12.836Z,100645.25
2023-02-18T14:27:17.606Z,100639.81
2023-02-18T14:30:28.427Z,100652.19
2023-02-18T14:33:35.560Z,100654.81
2023-02-18T14:36:47.614Z,100677.84
2023-02-18T14:40:04.431Z,100701.84
2023-02-18T14:43:13.919Z,100671.66
2023-02-18T14:46:27.473Z,100678.81
2023-02-18T14:49:45.714Z,100678.84
2023-02-18T14:52:51.506Z,100692.19
2023-02-18T14:55:59.407Z,100688.69
2023-02-18T14:59:04.212Z,100692.19
2023-02-18T15:02:19.434Z,100705.53
2023-02-18T15:05:26.074Z,100719.66
2023-02-18T15:08:39.701Z,100734.78
2023-02-18T15:11:46.937Z,100715.25
2023-02-18T15:14:52.191Z,100732.13
2023-02-18T15:17:56.206Z,100719.66
2023-02-18T15:21:02.063Z,100749.00
2023-02-18T15:24:09.863Z,100748.03
2023-02-18T15:27:15.571Z,100746.31
2023-02-18T15:30:22.768Z,100749.78
2023-02-18T15:33:26.132Z,100748.91
2023-02-18T15:36:30.444Z,100753.38
2023-02-18T15:39:34.051Z,100764.03
2023-02-18T15:42:44.999Z,100763.09
2023-02-18T15:45:51.032Z,100778.16
2023-02-18T15:48:55.464Z,100787.09
2023-02-18T15:52:03.255Z,100799.38
2023-02-18T15:55:13.711Z,100802.94
2023-02-18T15:58:19.720Z,100808.25
2023-02-18T16:01:29.096Z,100813.59
2023-02-18T16:04:35.160Z,100823.34
2023-02-18T16:07:52.066Z,100837.59
2023-02-18T16:10:57.545Z,100840.25
2023-02-18T16:14:00.506Z,100850.94
2023-02-18T16:17:10.871Z,100866.94
2023-02-18T16:20:24.583Z,100871.34
2023-02-18T16:23:36.288Z,100878.47
2023-02-18T16:26:44.688Z,100888.28
2023-02-18T16:29:52.132Z,100888.28
2023-02-18T16:32:55.129Z,100899.81
2023-02-18T16:35:58.004Z,100893.59
2023-02-18T16:39:03.354Z,100909.59
2023-02-18T16:42:09.785Z,100901.59
2023-02-18T16:45:13.603Z,100913.22
2023-02-18T16:48:20.606Z,100938.94
2023-02-18T16:51:27.629Z,100948.72
2023-02-18T16:54:31.894Z,100956.75
2023-02-18T16:57:34.830Z,100950.56
2023-02-18T17:00:38.471Z,100969.22
2023-02-18T17:03:41.449Z,100964.81
2023-02-18T17:06:45.205Z,100963.91
2023-02-18T17:09:49.440Z,100975.50
2023-02-18T17:12:52.404Z,100987.91
2023-02-18T17:15:58.385Z,101003.91
2023-02-18T17:19:01.288Z,101007.41
2023-02-18T17:22:04.240Z,101014.56
2023-02-18T17:25:14.059Z,101020.69
2023-02-18T17:28:19.185Z,101023.34
2023-02-18T17:31:26.085Z,101040.16
2023-02-18T17:34:32.658Z,101047.19
2023-02-18T17:37:35.668Z,101052.63
2023-02-18T17:40:40.252Z,101055.19
2023-02-18T17:43:43.546Z,101061.47
2023-02-18T17:46:46.722Z,101068.53
2023-02-18T17:49:49.511Z,101071.19
2023-02-18T17:52:52.551Z,101085.50
2023-02-18T17:55:56.776Z,101079.28
2023-02-18T17:58:59.695Z,101089.94
2023-02-18T18:02:02.546Z,101085.53
2023-02-18T18:05:05.763Z,101081.16
2023-02-18T18:08:09.892Z,101091.03
2023-02-18T18:11:17.161Z,101101.63
2023-02-18T18:14:20.006Z,101107.84
2023-02-18T18:17:22.853Z,101106.97
2023-02-18T18:20:27.579Z,101097.25
2023-02-18T18:23:30.480Z,101112.38
2023-02-18T18:26:34.705Z,101116.84
2023-02-18T18:29:37.510Z,101130.16
2023-02-18T18:32:40.402Z,101139.13
2023-02-18T18:35:45.859Z,101143.50
2023-02-18T18:38:48.844Z,101151.50
2023-02-18T18:41:53.600Z,101169.31
2023-02-18T18:44:56.510Z,101180.84
2023-02-18T18:47:59.582Z,101184.38
2023-02-18T18:51:02.493Z,101179.94
2023-02-18T18:54:05.830Z,101181.63
2023-02-18T18:57:10.043Z,101180.75
2023-02-18T19:00:14.234Z,101185.19
2023-02-18T19:03:17.900Z,101191.44
2023-02-18T19:06:22.014Z,101191.44
2023-02-18T19:09:25.070Z,101199.50
2023-02-18T19:12:29.327Z,101191.44
2023-02-18T19:15:32.716Z,101189.72
2023-02-18T19:18:36.049Z,101192.38
2023-02-18T19:21:40.043Z,101192.38
2023-02-18T19:24:42.918Z,101198.59
2023-02-18T19:27:48.886Z,101200.47
2023-02-18T19:30:51.900Z,101207.50
2023-02-18T19:33:55.562Z,101215.50
2023-02-18T19:36:58.481Z,101225.31
2023-02-18T19:40:01.531Z,101236.84
2023-02-18T19:43:06.667Z,101230.66
2023-02-18T19:46:10.279Z,101237.81
2023-02-18T19:49:13.237Z,101235.97
2023-02-18T19:52:16.094Z,101240.47
2023-02-18T19:55:19.138Z,101247.53
2023-02-18T19:58:23.390Z,101237.81
2023-02-18T20:01:26.751Z,101243.06
2023-02-18T20:04:29.933Z,101235.13
2023-02-18T20:07:32.849Z,101228.94
2023-02-18T20:10:36.123Z,101244.06
2023-02-18T20:13:40.381Z,101260.94
2023-02-18T20:16:43.239Z,101251.13
2023-02-18T20:19:46.236Z,101256.47
2023-02-18T20:22:49.087Z,101252.84
2023-02-18T20:25:52.052Z,101244.06
2023-02-18T20:28:56.579Z,101252.94
2023-02-18T20:31:59.478Z,101258.19
2023-02-18T20:35:02.351Z,101256.47
2023-02-18T20:38:05.238Z,101261.81
2023-02-18T20:41:09.647Z,101267.16
2023-02-18T20:44:15.929Z,101264.47
2023-02-18T20:47:19.268Z,101276.06
2023-02-18T20:50:22.213Z,101281.41
2023-02-18T20:53:25.067Z,101278.72
2023-02-18T20:56:27.871Z,101282.28
2023-02-18T20:59:33.390Z,101287.53
2023-02-18T21:02:36.453Z,101293.81
2023-02-18T21:05:39.277Z,101301.81
2023-02-18T21:08:43.301Z,101307.06
2023-02-18T21:11:46.878Z,101310.66
2023-02-18T21:14:51.114Z,101309.81
2023-02-18T21:17:53.894Z,101310.66
2023-02-18T21:20:56.762Z,101310.66
2023-02-18T21:23:59.655Z,101320.47
2023-02-18T21:27:02.554Z,101308.88
2023-02-18T21:30:09.176Z,101311.53
2023-02-18T21:33:12.833Z,101310.66
2023-02-18T21:36:16.207Z,101307.16
2023-02-18T21:39:19.250Z,101316.88
2023-02-18T21:42:22.296Z,101311.53
2023-02-18T21:45:27.526Z,101303.53
2023-02-18T21:48:48.243Z,101308.88
2023-02-18T21:52:08.141Z,101314.19
2023-02-18T21:55:11.530Z,101312.41
2023-02-18T21:58:14.689Z,101306.19
2023-02-18T22:01:18.988Z,101309.75
2023-02-18T22:04:22.379Z,101311.53
2023-02-18T22:07:27.344Z,101310.66
2023-02-18T22:10:30.286Z,101319.53
2023-02-18T22:13:33.213Z,101314.19
2023-02-18T22:16:37.688Z,101316.00
2023-02-18T22:19:41.032Z,101308.88
2023-02-18T22:22:43.842Z,101315.94
2023-02-18T22:25:47.937Z,101322.13
2023-02-18T22:28:54.505Z,101308.78
2023-02-18T22:31:58.697Z,101315.00
2023-02-18T22:35:02.111Z,101322.13
2023-02-18T22:38:05.022Z,101323.00
2023-02-18T22:41:10.251Z,101316.88
2023-02-18T22:44:15.521Z,101316.88
2023-02-18T22:47:19.947Z,101311.53
2023-02-18T22:50:22.774Z,101330.19
2023-02-18T22:53:25.728Z,101332.88
2023-02-18T22:56:30.218Z,101327.53
2023-02-18T22:59:33.142Z,101330.19
2023-02-18T23:02:37.425Z,101332.88
2023-02-18T23:05:40.276Z,101328.41
2023-02-18T23:08:43.372Z,101327.53
2023-02-18T23:11:46.444Z,101322.19
2023-02-18T23:14:49.293Z,101321.28
2023-02-18T23:17:53.440Z,101316.88
2023-02-18T23:21:21.332Z,101311.53
2023-02-18T23:24:24.309Z,101315.16
2023-02-18T23:27:28.002Z,101316.88
2023-02-18T23:30:31.004Z,101316.00
2023-02-18T23:33:35.296Z,101314.28
2023-02-18T23:36:38.207Z,101316.06
2023-02-18T23:39:41.426Z,101320.47
2023-02-18T23:42:44.461Z,101316.06
2023-02-18T23:45:47.347Z,101314.28
2023-02-18T23:48:51.892Z,101308.06
2023-02-18T23:51:56.744Z,101310.72
2023-02-18T23:54:59.720Z,101314.28
2023-02-18T23:58:02.579Z,101315.16
